sensor_id;sensor_type;location;lat;lon;timestamp;P1;durP1;ratioP1;P2;durP2;ratioP2
64060;SDS011;60147;55.036;73.242;2024-03-08T00:00:15;16.92;;;9.15;;
64060;SDS011;60147;55.036;73.242;2024-03-08T00:02:44;22.25;;;8.43;;
64060;SDS011;60147;55.036;73.242;2024-03-08T00:05:11;31.52;;;10.18;;
64060;SDS011;60147;55.036;73.242;2024-03-08T00:07:37;28.35;;;9.20;;
64060;SDS011;60147;55.036;73.242;2024-03-08T00:10:04;26.08;;;9.85;;
64060;SDS011;60147;55.036;73.242;2024-03-08T00:12:30;22.27;;;9.82;;
64060;SDS011;60147;55.036;73.242;2024-03-08T00:14:56;33.58;;;10.18;;
64060;SDS011;60147;55.036;73.242;2024-03-08T00:17:22;23.35;;;8.68;;
64060;SDS011;60147;55.036;73.242;2024-03-08T00:19:49;23.92;;;8.55;;
64060;SDS011;60147;55.036;73.242;2024-03-08T00:22:18;28.95;;;9.90;;
64060;SDS011;60147;55.036;73.242;2024-03-08T00:24:44;26.77;;;10.82;;
64060;SDS011;60147;55.036;73.242;2024-03-08T00:27:11;30.95;;;11.65;;
64060;SDS011;60147;55.036;73.242;2024-03-08T00:29:37;34.30;;;12.30;;
64060;SDS011;60147;55.036;73.242;2024-03-08T00:32:06;28.55;;;13.23;;
64060;SDS011;60147;55.036;73.242;2024-03-08T00:34:36;30.63;;;12.83;;
64060;SDS011;60147;55.036;73.242;2024-03-08T00:37:02;31.00;;;11.43;;
64060;SDS011;60147;55.036;73.242;2024-03-08T00:39:29;20.10;;;8.13;;
64060;SDS011;60147;55.036;73.242;2024-03-08T00:41:55;26.17;;;10.68;;
64060;SDS011;60147;55.036;73.242;2024-03-08T00:44:21;22.85;;;9.88;;
64060;SDS011;60147;55.036;73.242;2024-03-08T00:46:47;34.65;;;12.40;;
64060;SDS011;60147;55.036;73.242;2024-03-08T00:49:13;16.20;;;9.20;;
64060;SDS011;60147;55.036;73.242;2024-03-08T00:51:39;26.92;;;12.65;;
64060;SDS011;60147;55.036;73.242;2024-03-08T00:54:05;29.17;;;11.73;;
64060;SDS011;60147;55.036;73.242;2024-03-08T00:56:31;34.70;;;12.25;;
64060;SDS011;60147;55.036;73.242;2024-03-08T00:58:59;25.75;;;11.25;;
64060;SDS011;60147;55.036;73.242;2024-03-08T01:01:25;15.73;;;8.95;;
64060;SDS011;60147;55.036;73.242;2024-03-08T01:03:52;29.83;;;9.85;;
64060;SDS011;60147;55.036;73.242;2024-03-08T01:06:18;22.60;;;9.77;;
64060;SDS011;60147;55.036;73.242;2024-03-08T01:08:44;26.67;;;9.45;;
64060;SDS011;60147;55.036;73.242;2024-03-08T01:11:12;18.52;;;7.90;;
64060;SDS011;60147;55.036;73.242;2024-03-08T01:13:38;16.80;;;9.00;;
64060;SDS011;60147;55.036;73.242;2024-03-08T01:16:04;23.55;;;8.68;;
64060;SDS011;60147;55.036;73.242;2024-03-08T01:18:30;18.85;;;7.93;;
64060;SDS011;60147;55.036;73.242;2024-03-08T01:20:56;35.03;;;10.23;;
64060;SDS011;60147;55.036;73.242;2024-03-08T01:23:23;27.85;;;9.75;;
64060;SDS011;60147;55.036;73.242;2024-03-08T01:25:49;23.52;;;9.15;;
64060;SDS011;60147;55.036;73.242;2024-03-08T01:28:23;26.58;;;10.38;;
64060;SDS011;60147;55.036;73.242;2024-03-08T01:30:49;28.45;;;9.25;;
64060;SDS011;60147;55.036;73.242;2024-03-08T01:33:24;12.65;;;7.05;;
64060;SDS011;60147;55.036;73.242;2024-03-08T01:35:54;20.35;;;9.18;;
64060;SDS011;60147;55.036;73.242;2024-03-08T01:38:20;22.80;;;8.20;;
64060;SDS011;60147;55.036;73.242;2024-03-08T01:40:47;18.80;;;8.68;;
64060;SDS011;60147;55.036;73.242;2024-03-08T01:43:25;17.33;;;8.32;;
64060;SDS011;60147;55.036;73.242;2024-03-08T01:45:57;22.27;;;9.45;;
64060;SDS011;60147;55.036;73.242;2024-03-08T01:48:24;17.48;;;8.48;;
64060;SDS011;60147;55.036;73.242;2024-03-08T01:50:50;23.45;;;8.95;;
64060;SDS011;60147;55.036;73.242;2024-03-08T01:53:17;15.52;;;7.05;;
64060;SDS011;60147;55.036;73.242;2024-03-08T01:55:44;23.98;;;9.88;;
64060;SDS011;60147;55.036;73.242;2024-03-08T01:58:11;22.65;;;8.82;;
64060;SDS011;60147;55.036;73.242;2024-03-08T02:00:42;19.38;;;7.45;;
64060;SDS011;60147;55.036;73.242;2024-03-08T02:03:09;19.17;;;8.98;;
64060;SDS011;60147;55.036;73.242;2024-03-08T02:05:40;28.50;;;8.63;;
64060;SDS011;60147;55.036;73.242;2024-03-08T02:08:06;21.52;;;8.75;;
64060;SDS011;60147;55.036;73.242;2024-03-08T02:11:00;29.15;;;10.18;;
64060;SDS011;60147;55.036;73.242;2024-03-08T02:13:28;17.25;;;9.20;;
64060;SDS011;60147;55.036;73.242;2024-03-08T02:15:55;20.30;;;8.88;;
64060;SDS011;60147;55.036;73.242;2024-03-08T02:18:21;20.70;;;9.85;;
64060;SDS011;60147;55.036;73.242;2024-03-08T02:20:49;21.80;;;10.18;;
64060;SDS011;60147;55.036;73.242;2024-03-08T02:23:15;26.17;;;10.38;;
64060;SDS011;60147;55.036;73.242;2024-03-08T02:25:41;19.08;;;9.70;;
64060;SDS011;60147;55.036;73.242;2024-03-08T02:28:12;25.35;;;9.13;;
64060;SDS011;60147;55.036;73.242;2024-03-08T02:30:38;15.13;;;7.20;;
64060;SDS011;60147;55.036;73.242;2024-03-08T02:33:05;27.05;;;9.57;;
64060;SDS011;60147;55.036;73.242;2024-03-08T02:35:31;18.63;;;8.48;;
64060;SDS011;60147;55.036;73.242;2024-03-08T02:37:57;21.58;;;9.10;;
64060;SDS011;60147;55.036;73.242;2024-03-08T02:40:42;26.65;;;8.07;;
64060;SDS011;60147;55.036;73.242;2024-03-08T02:43:09;20.95;;;9.63;;
64060;SDS011;60147;55.036;73.242;2024-03-08T02:45:35;31.75;;;9.18;;
64060;SDS011;60147;55.036;73.242;2024-03-08T02:48:01;28.92;;;11.32;;
64060;SDS011;60147;55.036;73.242;2024-03-08T02:50:27;22.60;;;8.30;;
64060;SDS011;60147;55.036;73.242;2024-03-08T02:52:54;20.55;;;7.65;;
64060;SDS011;60147;55.036;73.242;2024-03-08T02:55:20;19.67;;;7.85;;
64060;SDS011;60147;55.036;73.242;2024-03-08T02:57:46;20.25;;;7.68;;
64060;SDS011;60147;55.036;73.242;2024-03-08T03:00:15;29.80;;;9.18;;
64060;SDS011;60147;55.036;73.242;2024-03-08T03:02:41;20.98;;;8.25;;
64060;SDS011;60147;55.036;73.242;2024-03-08T03:05:08;13.23;;;7.05;;
64060;SDS011;60147;55.036;73.242;2024-03-08T03:07:35;16.92;;;6.60;;
64060;SDS011;60147;55.036;73.242;2024-03-08T03:10:01;26.27;;;8.25;;
64060;SDS011;60147;55.036;73.242;2024-03-08T03:12:28;19.05;;;9.77;;
64060;SDS011;60147;55.036;73.242;2024-03-08T03:14:54;14.60;;;7.00;;
64060;SDS011;60147;55.036;73.242;2024-03-08T03:17:21;18.75;;;7.70;;
64060;SDS011;60147;55.036;73.242;2024-03-08T03:19:47;19.27;;;8.82;;
64060;SDS011;60147;55.036;73.242;2024-03-08T03:22:13;20.17;;;8.40;;
64060;SDS011;60147;55.036;73.242;2024-03-08T03:24:39;25.63;;;11.10;;
64060;SDS011;60147;55.036;73.242;2024-03-08T03:27:05;17.60;;;7.25;;
64060;SDS011;60147;55.036;73.242;2024-03-08T03:29:39;28.17;;;8.80;;
64060;SDS011;60147;55.036;73.242;2024-03-08T03:32:08;27.35;;;11.20;;
64060;SDS011;60147;55.036;73.242;2024-03-08T03:34:34;25.42;;;10.15;;
64060;SDS011;60147;55.036;73.242;2024-03-08T03:37:03;31.63;;;11.95;;
64060;SDS011;60147;55.036;73.242;2024-03-08T03:39:29;25.25;;;10.40;;
64060;SDS011;60147;55.036;73.242;2024-03-08T03:42:00;21.02;;;8.30;;
64060;SDS011;60147;55.036;73.242;2024-03-08T03:44:28;27.75;;;10.65;;
64060;SDS011;60147;55.036;73.242;2024-03-08T03:46:54;20.00;;;8.50;;
64060;SDS011;60147;55.036;73.242;2024-03-08T03:49:20;16.35;;;7.50;;
64060;SDS011;60147;55.036;73.242;2024-03-08T03:51:46;28.70;;;9.23;;
64060;SDS011;60147;55.036;73.242;2024-03-08T03:54:12;24.50;;;10.27;;
64060;SDS011;60147;55.036;73.242;2024-03-08T03:56:38;18.98;;;8.00;;
64060;SDS011;60147;55.036;73.242;2024-03-08T03:59:07;20.65;;;9.05;;
64060;SDS011;60147;55.036;73.242;2024-03-08T04:01:33;19.83;;;9.25;;
64060;SDS011;60147;55.036;73.242;2024-03-08T04:03:59;26.13;;;7.82;;
64060;SDS011;60147;55.036;73.242;2024-03-08T04:06:26;23.42;;;10.10;;
64060;SDS011;60147;55.036;73.242;2024-03-08T04:08:52;24.80;;;9.57;;
64060;SDS011;60147;55.036;73.242;2024-03-08T04:11:18;22.17;;;8.70;;
64060;SDS011;60147;55.036;73.242;2024-03-08T04:13:44;17.33;;;9.63;;
64060;SDS011;60147;55.036;73.242;2024-03-08T04:16:10;20.40;;;9.27;;
64060;SDS011;60147;55.036;73.242;2024-03-08T04:18:37;19.48;;;9.88;;
64060;SDS011;60147;55.036;73.242;2024-03-08T04:21:06;18.15;;;9.80;;
64060;SDS011;60147;55.036;73.242;2024-03-08T04:23:35;22.50;;;9.50;;
64060;SDS011;60147;55.036;73.242;2024-03-08T04:26:04;24.20;;;8.90;;
64060;SDS011;60147;55.036;73.242;2024-03-08T04:28:32;13.73;;;9.02;;
64060;SDS011;60147;55.036;73.242;2024-03-08T04:30:58;20.85;;;10.00;;
64060;SDS011;60147;55.036;73.242;2024-03-08T04:33:26;21.20;;;9.50;;
64060;SDS011;60147;55.036;73.242;2024-03-08T04:35:52;18.45;;;9.07;;
64060;SDS011;60147;55.036;73.242;2024-03-08T04:38:18;29.80;;;11.18;;
64060;SDS011;60147;55.036;73.242;2024-03-08T04:40:45;26.10;;;10.35;;
64060;SDS011;60147;55.036;73.242;2024-03-08T04:43:11;21.77;;;10.75;;
64060;SDS011;60147;55.036;73.242;2024-03-08T04:45:37;17.08;;;8.88;;
64060;SDS011;60147;55.036;73.242;2024-03-08T04:48:03;28.27;;;12.15;;
64060;SDS011;60147;55.036;73.242;2024-03-08T04:50:29;28.73;;;12.95;;
64060;SDS011;60147;55.036;73.242;2024-03-08T04:52:56;32.30;;;11.15;;
64060;SDS011;60147;55.036;73.242;2024-03-08T04:55:40;30.73;;;11.75;;
64060;SDS011;60147;55.036;73.242;2024-03-08T04:58:06;25.05;;;9.80;;
64060;SDS011;60147;55.036;73.242;2024-03-08T05:00:32;29.73;;;12.10;;
64060;SDS011;60147;55.036;73.242;2024-03-08T05:02:58;30.42;;;12.82;;
64060;SDS011;60147;55.036;73.242;2024-03-08T05:05:24;27.25;;;11.98;;
64060;SDS011;60147;55.036;73.242;2024-03-08T05:07:53;23.23;;;10.25;;
64060;SDS011;60147;55.036;73.242;2024-03-08T05:10:19;30.15;;;12.23;;
64060;SDS011;60147;55.036;73.242;2024-03-08T05:12:45;21.95;;;9.43;;
64060;SDS011;60147;55.036;73.242;2024-03-08T05:15:11;19.95;;;9.27;;
64060;SDS011;60147;55.036;73.242;2024-03-08T05:17:37;33.78;;;13.77;;
64060;SDS011;60147;55.036;73.242;2024-03-08T05:20:03;22.73;;;10.48;;
64060;SDS011;60147;55.036;73.242;2024-03-08T05:22:29;22.00;;;8.23;;
64060;SDS011;60147;55.036;73.242;2024-03-08T05:24:55;24.65;;;8.80;;
64060;SDS011;60147;55.036;73.242;2024-03-08T05:27:21;25.70;;;10.25;;
64060;SDS011;60147;55.036;73.242;2024-03-08T05:29:47;23.70;;;8.70;;
64060;SDS011;60147;55.036;73.242;2024-03-08T05:32:13;24.73;;;9.60;;
64060;SDS011;60147;55.036;73.242;2024-03-08T05:34:40;23.25;;;9.10;;
64060;SDS011;60147;55.036;73.242;2024-03-08T05:37:06;24.13;;;9.88;;
64060;SDS011;60147;55.036;73.242;2024-03-08T05:39:32;28.55;;;10.07;;
64060;SDS011;60147;55.036;73.242;2024-03-08T05:41:58;21.05;;;8.70;;
64060;SDS011;60147;55.036;73.242;2024-03-08T05:44:25;20.15;;;8.55;;
64060;SDS011;60147;55.036;73.242;2024-03-08T05:46:54;17.92;;;7.75;;
64060;SDS011;60147;55.036;73.242;2024-03-08T05:49:21;19.95;;;7.82;;
64060;SDS011;60147;55.036;73.242;2024-03-08T05:52:06;13.23;;;6.82;;
64060;SDS011;60147;55.036;73.242;2024-03-08T05:54:32;12.00;;;5.47;;
64060;SDS011;60147;55.036;73.242;2024-03-08T05:56:58;15.15;;;6.45;;
64060;SDS011;60147;55.036;73.242;2024-03-08T05:59:24;16.90;;;7.75;;
64060;SDS011;60147;55.036;73.242;2024-03-08T06:01:50;14.32;;;6.93;;
64060;SDS011;60147;55.036;73.242;2024-03-08T06:04:16;14.70;;;6.78;;
64060;SDS011;60147;55.036;73.242;2024-03-08T06:06:43;18.67;;;7.72;;
64060;SDS011;60147;55.036;73.242;2024-03-08T06:09:09;18.38;;;7.78;;
64060;SDS011;60147;55.036;73.242;2024-03-08T06:11:39;10.53;;;4.87;;
64060;SDS011;60147;55.036;73.242;2024-03-08T06:14:05;17.88;;;6.60;;
64060;SDS011;60147;55.036;73.242;2024-03-08T06:16:31;31.55;;;6.18;;
64060;SDS011;60147;55.036;73.242;2024-03-08T06:18:59;10.68;;;4.93;;
64060;SDS011;60147;55.036;73.242;2024-03-08T06:21:27;59.47;;;7.50;;
64060;SDS011;60147;55.036;73.242;2024-03-08T06:23:54;12.98;;;5.47;;
64060;SDS011;60147;55.036;73.242;2024-03-08T06:26:26;16.40;;;6.13;;
64060;SDS011;60147;55.036;73.242;2024-03-08T06:28:54;12.35;;;5.72;;
64060;SDS011;60147;55.036;73.242;2024-03-08T06:31:20;12.52;;;5.85;;
64060;SDS011;60147;55.036;73.242;2024-03-08T06:33:46;10.98;;;5.90;;
64060;SDS011;60147;55.036;73.242;2024-03-08T06:36:16;10.18;;;5.25;;
64060;SDS011;60147;55.036;73.242;2024-03-08T06:38:45;14.57;;;6.43;;
64060;SDS011;60147;55.036;73.242;2024-03-08T06:41:11;12.20;;;5.70;;
64060;SDS011;60147;55.036;73.242;2024-03-08T06:43:46;6.97;;;4.47;;
64060;SDS011;60147;55.036;73.242;2024-03-08T06:46:17;11.13;;;6.20;;
64060;SDS011;60147;55.036;73.242;2024-03-08T06:48:43;15.80;;;6.53;;
64060;SDS011;60147;55.036;73.242;2024-03-08T06:51:29;6.03;;;4.30;;
64060;SDS011;60147;55.036;73.242;2024-03-08T06:53:56;14.35;;;6.40;;
64060;SDS011;60147;55.036;73.242;2024-03-08T06:56:22;12.23;;;6.25;;
64060;SDS011;60147;55.036;73.242;2024-03-08T06:58:48;17.42;;;7.53;;
64060;SDS011;60147;55.036;73.242;2024-03-08T07:01:15;13.70;;;6.43;;
64060;SDS011;60147;55.036;73.242;2024-03-08T07:03:41;11.13;;;5.85;;
64060;SDS011;60147;55.036;73.242;2024-03-08T07:06:10;14.63;;;5.90;;
64060;SDS011;60147;55.036;73.242;2024-03-08T07:08:36;15.90;;;6.35;;
64060;SDS011;60147;55.036;73.242;2024-03-08T07:11:02;10.10;;;4.63;;
64060;SDS011;60147;55.036;73.242;2024-03-08T07:13:29;14.25;;;5.95;;
64060;SDS011;60147;55.036;73.242;2024-03-08T07:15:55;14.68;;;5.93;;
64060;SDS011;60147;55.036;73.242;2024-03-08T07:18:21;13.20;;;6.70;;
64060;SDS011;60147;55.036;73.242;2024-03-08T07:20:47;12.10;;;4.68;;
64060;SDS011;60147;55.036;73.242;2024-03-08T07:23:14;11.52;;;4.85;;
64060;SDS011;60147;55.036;73.242;2024-03-08T07:28:45;12.70;;;4.85;;
64060;SDS011;60147;55.036;73.242;2024-03-08T07:31:11;8.48;;;3.83;;
64060;SDS011;60147;55.036;73.242;2024-03-08T07:33:40;9.07;;;4.97;;
64060;SDS011;60147;55.036;73.242;2024-03-08T07:36:06;8.45;;;4.65;;
64060;SDS011;60147;55.036;73.242;2024-03-08T07:38:32;12.25;;;4.97;;
64060;SDS011;60147;55.036;73.242;2024-03-08T07:40:58;8.43;;;3.92;;
64060;SDS011;60147;55.036;73.242;2024-03-08T07:43:24;7.85;;;4.55;;
64060;SDS011;60147;55.036;73.242;2024-03-08T07:45:50;9.13;;;4.55;;
64060;SDS011;60147;55.036;73.242;2024-03-08T07:48:18;7.55;;;4.32;;
64060;SDS011;60147;55.036;73.242;2024-03-08T07:50:44;10.18;;;4.75;;
64060;SDS011;60147;55.036;73.242;2024-03-08T07:53:10;8.23;;;4.45;;
64060;SDS011;60147;55.036;73.242;2024-03-08T07:55:36;8.15;;;4.70;;
64060;SDS011;60147;55.036;73.242;2024-03-08T07:58:03;9.02;;;4.80;;
64060;SDS011;60147;55.036;73.242;2024-03-08T08:00:29;11.13;;;4.10;;
64060;SDS011;60147;55.036;73.242;2024-03-08T08:02:57;9.93;;;4.90;;
64060;SDS011;60147;55.036;73.242;2024-03-08T08:05:23;12.32;;;5.15;;
64060;SDS011;60147;55.036;73.242;2024-03-08T08:07:49;6.35;;;3.90;;
64060;SDS011;60147;55.036;73.242;2024-03-08T08:10:15;8.63;;;5.30;;
64060;SDS011;60147;55.036;73.242;2024-03-08T08:12:47;12.82;;;6.40;;
64060;SDS011;60147;55.036;73.242;2024-03-08T08:15:14;9.80;;;5.32;;
64060;SDS011;60147;55.036;73.242;2024-03-08T08:17:41;11.73;;;6.28;;
64060;SDS011;60147;55.036;73.242;2024-03-08T08:20:08;10.93;;;6.20;;
64060;SDS011;60147;55.036;73.242;2024-03-08T08:22:34;10.85;;;5.60;;
64060;SDS011;60147;55.036;73.242;2024-03-08T08:25:00;10.43;;;5.55;;
64060;SDS011;60147;55.036;73.242;2024-03-08T08:27:27;9.73;;;5.28;;
64060;SDS011;60147;55.036;73.242;2024-03-08T08:29:53;6.82;;;4.20;;
64060;SDS011;60147;55.036;73.242;2024-03-08T08:32:19;8.25;;;4.97;;
64060;SDS011;60147;55.036;73.242;2024-03-08T08:34:45;7.50;;;3.85;;
64060;SDS011;60147;55.036;73.242;2024-03-08T08:37:11;7.88;;;4.28;;
64060;SDS011;60147;55.036;73.242;2024-03-08T08:39:37;11.95;;;5.70;;
64060;SDS011;60147;55.036;73.242;2024-03-08T08:42:03;12.35;;;4.93;;
64060;SDS011;60147;55.036;73.242;2024-03-08T08:44:29;9.00;;;3.92;;
64060;SDS011;60147;55.036;73.242;2024-03-08T08:46:57;7.40;;;3.80;;
64060;SDS011;60147;55.036;73.242;2024-03-08T08:49:24;6.47;;;3.92;;
64060;SDS011;60147;55.036;73.242;2024-03-08T08:51:51;5.90;;;3.13;;
64060;SDS011;60147;55.036;73.242;2024-03-08T08:54:18;7.72;;;3.42;;
64060;SDS011;60147;55.036;73.242;2024-03-08T08:56:44;7.50;;;3.38;;
64060;SDS011;60147;55.036;73.242;2024-03-08T08:59:10;7.47;;;3.20;;
64060;SDS011;60147;55.036;73.242;2024-03-08T09:01:39;7.30;;;4.20;;
64060;SDS011;60147;55.036;73.242;2024-03-08T09:04:06;7.85;;;4.57;;
64060;SDS011;60147;55.036;73.242;2024-03-08T09:06:33;7.13;;;4.05;;
64060;SDS011;60147;55.036;73.242;2024-03-08T09:08:59;7.43;;;3.83;;
64060;SDS011;60147;55.036;73.242;2024-03-08T09:11:25;8.63;;;4.28;;
64060;SDS011;60147;55.036;73.242;2024-03-08T09:13:51;5.63;;;3.42;;
64060;SDS011;60147;55.036;73.242;2024-03-08T09:16:17;7.85;;;4.65;;
64060;SDS011;60147;55.036;73.242;2024-03-08T09:18:43;8.95;;;4.45;;
64060;SDS011;60147;55.036;73.242;2024-03-08T09:21:09;2.15;;;1.70;;
64060;SDS011;60147;55.036;73.242;2024-03-08T09:23:36;9.32;;;5.00;;
64060;SDS011;60147;55.036;73.242;2024-03-08T09:26:02;10.60;;;4.55;;
64060;SDS011;60147;55.036;73.242;2024-03-08T09:28:29;8.30;;;4.30;;
64060;SDS011;60147;55.036;73.242;2024-03-08T09:30:55;9.57;;;4.38;;
64060;SDS011;60147;55.036;73.242;2024-03-08T09:33:24;7.65;;;3.97;;
64060;SDS011;60147;55.036;73.242;2024-03-08T09:35:50;5.80;;;3.08;;
64060;SDS011;60147;55.036;73.242;2024-03-08T09:38:17;6.28;;;3.63;;
64060;SDS011;60147;55.036;73.242;2024-03-08T09:40:43;8.65;;;4.68;;
64060;SDS011;60147;55.036;73.242;2024-03-08T09:43:09;9.20;;;4.75;;
64060;SDS011;60147;55.036;73.242;2024-03-08T09:45:37;12.30;;;4.95;;
64060;SDS011;60147;55.036;73.242;2024-03-08T09:48:10;9.05;;;5.28;;
64060;SDS011;60147;55.036;73.242;2024-03-08T09:50:42;10.80;;;5.32;;
64060;SDS011;60147;55.036;73.242;2024-03-08T09:53:09;9.27;;;5.00;;
64060;SDS011;60147;55.036;73.242;2024-03-08T09:55:38;8.32;;;4.78;;
64060;SDS011;60147;55.036;73.242;2024-03-08T09:58:08;8.50;;;4.45;;
64060;SDS011;60147;55.036;73.242;2024-03-08T10:00:58;12.88;;;5.75;;
64060;SDS011;60147;55.036;73.242;2024-03-08T10:03:28;9.48;;;5.07;;
64060;SDS011;60147;55.036;73.242;2024-03-08T10:05:56;8.40;;;5.10;;
64060;SDS011;60147;55.036;73.242;2024-03-08T10:08:26;13.32;;;5.68;;
64060;SDS011;60147;55.036;73.242;2024-03-08T10:10:52;10.68;;;4.95;;
64060;SDS011;60147;55.036;73.242;2024-03-08T10:13:18;10.82;;;5.95;;
64060;SDS011;60147;55.036;73.242;2024-03-08T10:15:45;9.35;;;5.07;;
64060;SDS011;60147;55.036;73.242;2024-03-08T10:18:11;11.85;;;5.65;;
64060;SDS011;60147;55.036;73.242;2024-03-08T10:20:38;9.35;;;5.25;;
64060;SDS011;60147;55.036;73.242;2024-03-08T10:23:04;13.52;;;5.95;;
64060;SDS011;60147;55.036;73.242;2024-03-08T10:25:34;12.07;;;5.40;;
64060;SDS011;60147;55.036;73.242;2024-03-08T10:28:03;11.70;;;5.78;;
64060;SDS011;60147;55.036;73.242;2024-03-08T10:30:30;11.77;;;6.43;;
64060;SDS011;60147;55.036;73.242;2024-03-08T10:32:58;10.00;;;5.90;;
64060;SDS011;60147;55.036;73.242;2024-03-08T10:35:24;11.93;;;6.70;;
64060;SDS011;60147;55.036;73.242;2024-03-08T10:37:52;11.40;;;5.32;;
64060;SDS011;60147;55.036;73.242;2024-03-08T10:40:26;10.52;;;5.32;;
64060;SDS011;60147;55.036;73.242;2024-03-08T10:42:53;10.38;;;5.32;;
64060;SDS011;60147;55.036;73.242;2024-03-08T10:45:36;12.15;;;6.55;;
64060;SDS011;60147;55.036;73.242;2024-03-08T10:50:50;12.27;;;5.97;;
64060;SDS011;60147;55.036;73.242;2024-03-08T10:53:18;10.88;;;5.85;;
64060;SDS011;60147;55.036;73.242;2024-03-08T10:55:46;12.63;;;6.70;;
64060;SDS011;60147;55.036;73.242;2024-03-08T10:58:13;13.93;;;6.72;;
64060;SDS011;60147;55.036;73.242;2024-03-08T11:00:40;13.38;;;5.95;;
64060;SDS011;60147;55.036;73.242;2024-03-08T11:03:07;13.40;;;6.13;;
64060;SDS011;60147;55.036;73.242;2024-03-08T11:05:54;13.70;;;5.88;;
64060;SDS011;60147;55.036;73.242;2024-03-08T11:08:20;13.93;;;6.53;;
64060;SDS011;60147;55.036;73.242;2024-03-08T11:10:50;13.80;;;6.65;;
64060;SDS011;60147;55.036;73.242;2024-03-08T11:16:02;15.13;;;6.72;;
64060;SDS011;60147;55.036;73.242;2024-03-08T11:18:33;12.90;;;6.35;;
64060;SDS011;60147;55.036;73.242;2024-03-08T11:21:03;12.75;;;6.15;;
64060;SDS011;60147;55.036;73.242;2024-03-08T11:23:32;12.55;;;6.32;;
64060;SDS011;60147;55.036;73.242;2024-03-08T11:25:59;14.70;;;6.20;;
64060;SDS011;60147;55.036;73.242;2024-03-08T11:28:25;13.57;;;6.13;;
64060;SDS011;60147;55.036;73.242;2024-03-08T11:33:24;16.77;;;7.00;;
64060;SDS011;60147;55.036;73.242;2024-03-08T11:35:52;11.73;;;5.60;;
64060;SDS011;60147;55.036;73.242;2024-03-08T11:38:18;16.67;;;7.53;;
64060;SDS011;60147;55.036;73.242;2024-03-08T11:40:47;12.60;;;5.75;;
64060;SDS011;60147;55.036;73.242;2024-03-08T11:43:16;14.02;;;6.00;;
64060;SDS011;60147;55.036;73.242;2024-03-08T11:45:42;15.75;;;6.75;;
64060;SDS011;60147;55.036;73.242;2024-03-08T11:48:09;16.20;;;6.80;;
64060;SDS011;60147;55.036;73.242;2024-03-08T11:50:38;14.47;;;6.30;;
64060;SDS011;60147;55.036;73.242;2024-03-08T11:53:04;18.02;;;6.60;;
64060;SDS011;60147;55.036;73.242;2024-03-08T11:55:31;15.77;;;6.00;;
64060;SDS011;60147;55.036;73.242;2024-03-08T11:58:04;14.45;;;5.93;;
64060;SDS011;60147;55.036;73.242;2024-03-08T12:00:31;12.95;;;5.90;;
64060;SDS011;60147;55.036;73.242;2024-03-08T12:03:04;13.77;;;5.85;;
64060;SDS011;60147;55.036;73.242;2024-03-08T12:05:31;15.40;;;6.43;;
64060;SDS011;60147;55.036;73.242;2024-03-08T12:07:59;17.10;;;6.43;;
64060;SDS011;60147;55.036;73.242;2024-03-08T12:10:27;12.55;;;5.95;;
64060;SDS011;60147;55.036;73.242;2024-03-08T12:12:54;20.85;;;6.45;;
64060;SDS011;60147;55.036;73.242;2024-03-08T12:15:23;21.08;;;9.07;;
64060;SDS011;60147;55.036;73.242;2024-03-08T12:17:49;11.13;;;6.10;;
64060;SDS011;60147;55.036;73.242;2024-03-08T12:20:26;14.70;;;6.18;;
64060;SDS011;60147;55.036;73.242;2024-03-08T12:22:55;15.15;;;6.93;;
64060;SDS011;60147;55.036;73.242;2024-03-08T12:25:27;13.82;;;6.82;;
64060;SDS011;60147;55.036;73.242;2024-03-08T12:28:08;11.48;;;6.13;;
64060;SDS011;60147;55.036;73.242;2024-03-08T12:30:45;14.52;;;6.78;;
64060;SDS011;60147;55.036;73.242;2024-03-08T12:35:39;20.30;;;6.88;;
64060;SDS011;60147;55.036;73.242;2024-03-08T12:38:06;14.50;;;6.35;;
64060;SDS011;60147;55.036;73.242;2024-03-08T12:40:44;15.32;;;7.15;;
64060;SDS011;60147;55.036;73.242;2024-03-08T12:43:10;21.83;;;7.45;;
64060;SDS011;60147;55.036;73.242;2024-03-08T12:45:37;10.80;;;5.78;;
64060;SDS011;60147;55.036;73.242;2024-03-08T12:48:03;14.35;;;6.70;;
64060;SDS011;60147;55.036;73.242;2024-03-08T12:50:39;12.30;;;5.50;;
64060;SDS011;60147;55.036;73.242;2024-03-08T12:53:21;14.55;;;7.25;;
64060;SDS011;60147;55.036;73.242;2024-03-08T12:55:49;17.88;;;7.10;;
64060;SDS011;60147;55.036;73.242;2024-03-08T12:58:31;16.95;;;7.43;;
64060;SDS011;60147;55.036;73.242;2024-03-08T13:00:57;21.90;;;6.50;;
64060;SDS011;60147;55.036;73.242;2024-03-08T13:03:23;13.88;;;6.63;;
64060;SDS011;60147;55.036;73.242;2024-03-08T13:05:49;16.40;;;7.10;;
64060;SDS011;60147;55.036;73.242;2024-03-08T13:08:16;18.50;;;7.60;;
64060;SDS011;60147;55.036;73.242;2024-03-08T13:10:51;10.63;;;5.57;;
64060;SDS011;60147;55.036;73.242;2024-03-08T13:13:17;14.88;;;7.03;;
64060;SDS011;60147;55.036;73.242;2024-03-08T13:15:46;16.85;;;7.22;;
64060;SDS011;60147;55.036;73.242;2024-03-08T13:18:12;17.00;;;6.68;;
64060;SDS011;60147;55.036;73.242;2024-03-08T13:20:38;18.75;;;7.55;;
64060;SDS011;60147;55.036;73.242;2024-03-08T13:23:05;26.17;;;10.00;;
64060;SDS011;60147;55.036;73.242;2024-03-08T13:25:34;15.65;;;7.40;;
64060;SDS011;60147;55.036;73.242;2024-03-08T13:28:00;24.65;;;6.95;;
64060;SDS011;60147;55.036;73.242;2024-03-08T13:30:26;14.15;;;7.88;;
64060;SDS011;60147;55.036;73.242;2024-03-08T13:33:08;21.00;;;6.93;;
64060;SDS011;60147;55.036;73.242;2024-03-08T13:35:35;20.38;;;9.15;;
64060;SDS011;60147;55.036;73.242;2024-03-08T13:38:11;16.25;;;7.85;;
64060;SDS011;60147;55.036;73.242;2024-03-08T13:40:39;21.73;;;8.63;;
64060;SDS011;60147;55.036;73.242;2024-03-08T13:43:06;19.90;;;8.30;;
64060;SDS011;60147;55.036;73.242;2024-03-08T13:45:35;18.92;;;8.32;;
64060;SDS011;60147;55.036;73.242;2024-03-08T13:48:07;16.83;;;7.03;;
64060;SDS011;60147;55.036;73.242;2024-03-08T13:50:38;19.15;;;7.68;;
64060;SDS011;60147;55.036;73.242;2024-03-08T13:53:05;22.20;;;7.57;;
64060;SDS011;60147;55.036;73.242;2024-03-08T13:55:32;11.30;;;5.80;;
64060;SDS011;60147;55.036;73.242;2024-03-08T13:57:59;17.85;;;7.90;;
64060;SDS011;60147;55.036;73.242;2024-03-08T14:00:27;18.60;;;8.55;;
64060;SDS011;60147;55.036;73.242;2024-03-08T14:02:59;20.40;;;8.68;;
64060;SDS011;60147;55.036;73.242;2024-03-08T14:05:25;21.23;;;11.05;;
64060;SDS011;60147;55.036;73.242;2024-03-08T14:07:51;38.45;;;10.68;;
64060;SDS011;60147;55.036;73.242;2024-03-08T14:10:19;23.80;;;8.82;;
64060;SDS011;60147;55.036;73.242;2024-03-08T14:12:48;24.50;;;8.70;;
64060;SDS011;60147;55.036;73.242;2024-03-08T14:15:16;23.15;;;9.68;;
64060;SDS011;60147;55.036;73.242;2024-03-08T14:17:43;20.25;;;8.98;;
64060;SDS011;60147;55.036;73.242;2024-03-08T14:20:11;24.05;;;9.23;;
64060;SDS011;60147;55.036;73.242;2024-03-08T14:22:38;30.52;;;10.77;;
64060;SDS011;60147;55.036;73.242;2024-03-08T14:25:05;21.27;;;8.20;;
64060;SDS011;60147;55.036;73.242;2024-03-08T14:27:31;24.13;;;10.95;;
64060;SDS011;60147;55.036;73.242;2024-03-08T14:29:58;23.55;;;9.27;;
64060;SDS011;60147;55.036;73.242;2024-03-08T14:32:24;26.27;;;10.75;;
64060;SDS011;60147;55.036;73.242;2024-03-08T14:34:50;38.35;;;12.90;;
64060;SDS011;60147;55.036;73.242;2024-03-08T14:37:16;50.67;;;16.10;;